sensor_id;sensor_type;location;lat;lon;timestamp;temperature;humidity
76299;DHT22;65236;42.332;23.550;2023-01-19T00:00:48;12.53;44.20
76299;DHT22;65236;42.332;23.550;2023-01-19T00:03:14;12.64;44.03
76299;DHT22;65236;42.332;23.550;2023-01-19T00:05:43;12.69;43.67
76299;DHT22;65236;42.332;23.550;2023-01-19T00:08:09;12.73;43.65
76299;DHT22;65236;42.332;23.550;2023-01-19T00:10:45;12.67;43.60
76299;DHT22;65236;42.332;23.550;2023-01-19T00:13:11;12.65;43.72
76299;DHT22;65236;42.332;23.550;2023-01-19T00:15:37;12.58;43.85
76299;DHT22;65236;42.332;23.550;2023-01-19T00:18:03;12.58;44.02
76299;DHT22;65236;42.332;23.550;2023-01-19T00:20:28;12.67;42.75
76299;DHT22;65236;42.332;23.550;2023-01-19T00:22:57;12.73;43.05
76299;DHT22;65236;42.332;23.550;2023-01-19T00:25:22;12.63;43.00
76299;DHT22;65236;42.332;23.550;2023-01-19T00:27:47;12.63;43.48
76299;DHT22;65236;42.332;23.550;2023-01-19T00:30:14;12.51;43.75
76299;DHT22;65236;42.332;23.550;2023-01-19T00:32:40;12.57;43.55
76299;DHT22;65236;42.332;23.550;2023-01-19T00:35:05;12.65;43.23
76299;DHT22;65236;42.332;23.550;2023-01-19T00:37:31;12.64;43.38
76299;DHT22;65236;42.332;23.550;2023-01-19T00:39:56;12.60;43.63
76299;DHT22;65236;42.332;23.550;2023-01-19T00:42:22;12.69;42.92
76299;DHT22;65236;42.332;23.550;2023-01-19T00:45:23;12.60;43.42
76299;DHT22;65236;42.332;23.550;2023-01-19T00:47:49;12.65;42.84
76299;DHT22;65236;42.332;23.550;2023-01-19T00:50:25;12.73;42.76
76299;DHT22;65236;42.332;23.550;2023-01-19T00:52:52;12.75;42.92
76299;DHT22;65236;42.332;23.550;2023-01-19T00:55:18;12.61;42.94
76299;DHT22;65236;42.332;23.550;2023-01-19T00:57:44;12.58;43.08
76299;DHT22;65236;42.332;23.550;2023-01-19T01:00:12;12.63;42.64
76299;DHT22;65236;42.332;23.550;2023-01-19T01:02:39;12.48;42.99
76299;DHT22;65236;42.332;23.550;2023-01-19T01:05:05;12.61;42.55
76299;DHT22;65236;42.332;23.550;2023-01-19T01:07:32;12.64;42.25
76299;DHT22;65236;42.332;23.550;2023-01-19T01:10:08;12.44;42.72
76299;DHT22;65236;42.332;23.550;2023-01-19T01:12:34;12.58;42.04
76299;DHT22;65236;42.332;23.550;2023-01-19T01:15:00;12.50;42.31
76299;DHT22;65236;42.332;23.550;2023-01-19T01:17:25;12.40;42.50
76299;DHT22;65236;42.332;23.550;2023-01-19T01:19:51;12.26;42.91
76299;DHT22;65236;42.332;23.550;2023-01-19T01:22:16;12.32;42.68
76299;DHT22;65236;42.332;23.550;2023-01-19T01:24:42;12.51;42.02
76299;DHT22;65236;42.332;23.550;2023-01-19T01:27:08;12.41;42.32
76299;DHT22;65236;42.332;23.550;2023-01-19T01:29:33;12.41;42.46
76299;DHT22;65236;42.332;23.550;2023-01-19T01:32:00;12.27;42.61
76299;DHT22;65236;42.332;23.550;2023-01-19T01:34:25;12.12;42.65
76299;DHT22;65236;42.332;23.550;2023-01-19T01:36:51;12.26;41.92
76299;DHT22;65236;42.332;23.550;2023-01-19T01:39:16;12.43;41.12
76299;DHT22;65236;42.332;23.550;2023-01-19T01:41:42;12.46;40.81
76299;DHT22;65236;42.332;23.550;2023-01-19T01:50:22;12.37;41.12
76299;DHT22;65236;42.332;23.550;2023-01-19T01:52:57;12.33;40.88
76299;DHT22;65236;42.332;23.550;2023-01-19T01:55:26;12.44;40.76
76299;DHT22;65236;42.332;23.550;2023-01-19T01:57:56;12.48;40.38
76299;DHT22;65236;42.332;23.550;2023-01-19T02:00:23;12.46;41.14
76299;DHT22;65236;42.332;23.550;2023-01-19T02:02:49;12.27;41.28
76299;DHT22;65236;42.332;23.550;2023-01-19T02:05:23;12.19;42.29
76299;DHT22;65236;42.332;23.550;2023-01-19T02:08:03;12.08;42.01
76299;DHT22;65236;42.332;23.550;2023-01-19T02:10:50;12.22;41.75
76299;DHT22;65236;42.332;23.550;2023-01-19T02:13:37;12.09;42.16
76299;DHT22;65236;42.332;23.550;2023-01-19T02:16:07;11.90;42.78
76299;DHT22;65236;42.332;23.550;2023-01-19T02:18:33;11.79;44.20
76299;DHT22;65236;42.332;23.550;2023-01-19T02:21:19;11.61;44.11
76299;DHT22;65236;42.332;23.550;2023-01-19T02:23:47;11.40;45.46
76299;DHT22;65236;42.332;23.550;2023-01-19T02:26:22;11.41;44.21
76299;DHT22;65236;42.332;23.550;2023-01-19T02:28:54;11.48;43.84
76299;DHT22;65236;42.332;23.550;2023-01-19T02:31:22;11.40;44.03
76299;DHT22;65236;42.332;23.550;2023-01-19T02:33:47;11.28;44.14
76299;DHT22;65236;42.332;23.550;2023-01-19T02:36:15;11.31;44.21
76299;DHT22;65236;42.332;23.550;2023-01-19T02:38:43;11.23;44.91
76299;DHT22;65236;42.332;23.550;2023-01-19T02:41:14;11.58;42.29
76299;DHT22;65236;42.332;23.550;2023-01-19T02:43:41;11.71;42.46
76299;DHT22;65236;42.332;23.550;2023-01-19T02:46:07;11.71;42.28
76299;DHT22;65236;42.332;23.550;2023-01-19T02:48:33;11.55;42.78
76299;DHT22;65236;42.332;23.550;2023-01-19T02:50:59;11.40;43.17
76299;DHT22;65236;42.332;23.550;2023-01-19T02:55:57;11.23;45.20
76299;DHT22;65236;42.332;23.550;2023-01-19T02:58:46;10.97;46.01
76299;DHT22;65236;42.332;23.550;2023-01-19T03:01:21;11.28;42.76
76299;DHT22;65236;42.332;23.550;2023-01-19T03:06:43;11.51;42.14
76299;DHT22;65236;42.332;23.550;2023-01-19T03:09:28;11.34;43.27
76299;DHT22;65236;42.332;23.550;2023-01-19T03:14:47;10.82;44.55
76299;DHT22;65236;42.332;23.550;2023-01-19T03:17:16;10.68;45.60
76299;DHT22;65236;42.332;23.550;2023-01-19T03:19:44;10.57;46.61
76299;DHT22;65236;42.332;23.550;2023-01-19T03:22:14;10.57;47.35
76299;DHT22;65236;42.332;23.550;2023-01-19T03:24:43;10.71;47.28
76299;DHT22;65236;42.332;23.550;2023-01-19T03:27:14;10.86;46.46
76299;DHT22;65236;42.332;23.550;2023-01-19T03:29:43;10.82;46.94
76299;DHT22;65236;42.332;23.550;2023-01-19T03:32:15;10.66;47.43
76299;DHT22;65236;42.332;23.550;2023-01-19T03:34:41;10.59;47.93
76299;DHT22;65236;42.332;23.550;2023-01-19T03:37:09;10.49;48.48
76299;DHT22;65236;42.332;23.550;2023-01-19T03:39:35;10.95;44.12
76299;DHT22;65236;42.332;23.550;2023-01-19T03:42:04;11.24;42.80
76299;DHT22;65236;42.332;23.550;2023-01-19T03:44:31;11.17;43.32
76299;DHT22;65236;42.332;23.550;2023-01-19T03:46:58;10.96;44.50
76299;DHT22;65236;42.332;23.550;2023-01-19T03:49:24;10.73;46.33
76299;DHT22;65236;42.332;23.550;2023-01-19T03:51:54;10.58;47.03
76299;DHT22;65236;42.332;23.550;2023-01-19T03:54:20;10.54;47.32
76299;DHT22;65236;42.332;23.550;2023-01-19T03:56:45;10.47;47.61
76299;DHT22;65236;42.332;23.550;2023-01-19T03:59:11;10.52;47.54
76299;DHT22;65236;42.332;23.550;2023-01-19T04:01:36;10.55;47.55
76299;DHT22;65236;42.332;23.550;2023-01-19T04:04:02;10.55;47.70
76299;DHT22;65236;42.332;23.550;2023-01-19T04:06:27;10.58;47.61
76299;DHT22;65236;42.332;23.550;2023-01-19T04:08:52;10.62;47.85
76299;DHT22;65236;42.332;23.550;2023-01-19T04:11:18;10.71;47.93
76299;DHT22;65236;42.332;23.550;2023-01-19T04:13:44;10.78;47.84
76299;DHT22;65236;42.332;23.550;2023-01-19T04:16:10;10.83;47.79
76299;DHT22;65236;42.332;23.550;2023-01-19T04:18:36;10.91;47.99
76299;DHT22;65236;42.332;23.550;2023-01-19T04:21:03;10.96;47.46
76299;DHT22;65236;42.332;23.550;2023-01-19T04:23:29;10.99;47.72
76299;DHT22;65236;42.332;23.550;2023-01-19T04:26:04;11.06;47.81
76299;DHT22;65236;42.332;23.550;2023-01-19T04:28:30;11.07;47.67
76299;DHT22;65236;42.332;23.550;2023-01-19T04:30:56;11.06;47.91
76299;DHT22;65236;42.332;23.550;2023-01-19T04:33:22;11.06;47.76
76299;DHT22;65236;42.332;23.550;2023-01-19T04:35:49;11.06;47.61
76299;DHT22;65236;42.332;23.550;2023-01-19T04:38:15;11.03;47.48
76299;DHT22;65236;42.332;23.550;2023-01-19T04:40:41;10.97;47.56
76299;DHT22;65236;42.332;23.550;2023-01-19T04:43:07;10.88;47.78
76299;DHT22;65236;42.332;23.550;2023-01-19T04:45:32;10.86;47.64
76299;DHT22;65236;42.332;23.550;2023-01-19T04:47:58;10.95;47.32
76299;DHT22;65236;42.332;23.550;2023-01-19T04:50:23;10.89;47.48
76299;DHT22;65236;42.332;23.550;2023-01-19T04:52:49;10.85;47.57
76299;DHT22;65236;42.332;23.550;2023-01-19T04:55:15;10.83;47.70
76299;DHT22;65236;42.332;23.550;2023-01-19T04:57:41;10.86;47.50
76299;DHT22;65236;42.332;23.550;2023-01-19T05:00:07;10.79;47.41
76299;DHT22;65236;42.332;23.550;2023-01-19T05:02:32;10.75;47.02
76299;DHT22;65236;42.332;23.550;2023-01-19T05:04:58;10.80;46.78
76299;DHT22;65236;42.332;23.550;2023-01-19T05:07:24;10.80;47.21
76299;DHT22;65236;42.332;23.550;2023-01-19T05:09:49;10.78;48.01
76299;DHT22;65236;42.332;23.550;2023-01-19T05:12:15;10.73;48.95
76299;DHT22;65236;42.332;23.550;2023-01-19T05:14:40;10.65;50.17
76299;DHT22;65236;42.332;23.550;2023-01-19T05:17:06;10.69;48.13
76299;DHT22;65236;42.332;23.550;2023-01-19T05:19:31;10.73;50.34
76299;DHT22;65236;42.332;23.550;2023-01-19T05:21:57;10.69;50.60
76299;DHT22;65236;42.332;23.550;2023-01-19T05:24:22;10.62;50.79
76299;DHT22;65236;42.332;23.550;2023-01-19T05:26:48;10.51;51.37
76299;DHT22;65236;42.332;23.550;2023-01-19T05:29:13;10.41;51.69
76299;DHT22;65236;42.332;23.550;2023-01-19T05:31:38;10.33;51.89
76299;DHT22;65236;42.332;23.550;2023-01-19T05:34:04;10.36;50.52
76299;DHT22;65236;42.332;23.550;2023-01-19T05:36:30;10.33;51.06
76299;DHT22;65236;42.332;23.550;2023-01-19T05:38:55;10.30;51.12
76299;DHT22;65236;42.332;23.550;2023-01-19T05:41:21;10.22;51.35
76299;DHT22;65236;42.332;23.550;2023-01-19T05:43:47;10.27;50.66
76299;DHT22;65236;42.332;23.550;2023-01-19T05:46:13;10.24;50.96
76299;DHT22;65236;42.332;23.550;2023-01-19T05:48:38;10.20;51.45
76299;DHT22;65236;42.332;23.550;2023-01-19T05:51:04;10.13;51.25
76299;DHT22;65236;42.332;23.550;2023-01-19T05:53:30;10.18;48.81
76299;DHT22;65236;42.332;23.550;2023-01-19T05:56:03;10.27;48.62
76299;DHT22;65236;42.332;23.550;2023-01-19T05:58:30;10.55;47.29
76299;DHT22;65236;42.332;23.550;2023-01-19T06:00:55;10.65;47.03
76299;DHT22;65236;42.332;23.550;2023-01-19T06:03:21;10.71;47.24
76299;DHT22;65236;42.332;23.550;2023-01-19T06:05:47;11.37;44.76
76299;DHT22;65236;42.332;23.550;2023-01-19T06:08:12;11.37;44.96
76299;DHT22;65236;42.332;23.550;2023-01-19T06:10:38;11.43;44.32
76299;DHT22;65236;42.332;23.550;2023-01-19T06:13:04;11.47;44.24
76299;DHT22;65236;42.332;23.550;2023-01-19T06:15:29;11.68;43.51
76299;DHT22;65236;42.332;23.550;2023-01-19T06:17:54;11.64;44.31
76299;DHT22;65236;42.332;23.550;2023-01-19T06:20:20;11.48;45.61
76299;DHT22;65236;42.332;23.550;2023-01-19T06:22:45;11.48;43.39
76299;DHT22;65236;42.332;23.550;2023-01-19T06:25:11;11.47;43.59
76299;DHT22;65236;42.332;23.550;2023-01-19T06:27:37;11.50;43.58
76299;DHT22;65236;42.332;23.550;2023-01-19T06:30:04;11.64;43.00
76299;DHT22;65236;42.332;23.550;2023-01-19T06:32:30;11.64;43.01
76299;DHT22;65236;42.332;23.550;2023-01-19T06:34:56;11.74;43.83
76299;DHT22;65236;42.332;23.550;2023-01-19T06:37:21;11.70;43.92
76299;DHT22;65236;42.332;23.550;2023-01-19T06:39:47;11.67;44.15
76299;DHT22;65236;42.332;23.550;2023-01-19T06:42:12;11.74;43.70
76299;DHT22;65236;42.332;23.550;2023-01-19T06:44:38;11.83;44.14
76299;DHT22;65236;42.332;23.550;2023-01-19T06:47:11;11.99;43.38
76299;DHT22;65236;42.332;23.550;2023-01-19T06:49:36;11.99;43.53
76299;DHT22;65236;42.332;23.550;2023-01-19T06:52:02;12.12;43.08
76299;DHT22;65236;42.332;23.550;2023-01-19T06:54:27;12.23;42.66
76299;DHT22;65236;42.332;23.550;2023-01-19T06:56:53;12.30;42.26
76299;DHT22;65236;42.332;23.550;2023-01-19T06:59:18;12.41;42.39
76299;DHT22;65236;42.332;23.550;2023-01-19T07:01:43;12.48;42.47
76299;DHT22;65236;42.332;23.550;2023-01-19T07:04:09;12.64;41.53
76299;DHT22;65236;42.332;23.550;2023-01-19T07:06:38;12.81;41.34
76299;DHT22;65236;42.332;23.550;2023-01-19T07:09:03;12.98;41.32
76299;DHT22;65236;42.332;23.550;2023-01-19T07:11:32;13.13;40.14
76299;DHT22;65236;42.332;23.550;2023-01-19T07:13:57;13.35;39.43
76299;DHT22;65236;42.332;23.550;2023-01-19T07:16:23;13.51;39.24
76299;DHT22;65236;42.332;23.550;2023-01-19T07:18:48;13.71;39.41
76299;DHT22;65236;42.332;23.550;2023-01-19T07:21:14;13.82;37.02
76299;DHT22;65236;42.332;23.550;2023-01-19T07:23:39;14.04;37.04
76299;DHT22;65236;42.332;23.550;2023-01-19T07:26:05;14.29;36.78
76299;DHT22;65236;42.332;23.550;2023-01-19T07:28:30;14.46;36.93
76299;DHT22;65236;42.332;23.550;2023-01-19T07:30:57;14.62;36.19
76299;DHT22;65236;42.332;23.550;2023-01-19T07:33:23;14.37;36.67
76299;DHT22;65236;42.332;23.550;2023-01-19T07:35:51;14.60;36.54
76299;DHT22;65236;42.332;23.550;2023-01-19T07:38:17;14.77;36.70
76299;DHT22;65236;42.332;23.550;2023-01-19T07:40:43;14.66;35.69
76299;DHT22;65236;42.332;23.550;2023-01-19T07:43:09;14.94;36.20
76299;DHT22;65236;42.332;23.550;2023-01-19T07:45:34;14.92;36.85
76299;DHT22;65236;42.332;23.550;2023-01-19T07:48:00;15.14;36.24
76299;DHT22;65236;42.332;23.550;2023-01-19T07:50:26;15.29;35.49
76299;DHT22;65236;42.332;23.550;2023-01-19T07:52:53;15.01;35.45
76299;DHT22;65236;42.332;23.550;2023-01-19T07:55:20;15.46;35.76
76299;DHT22;65236;42.332;23.550;2023-01-19T07:57:50;15.38;35.32
76299;DHT22;65236;42.332;23.550;2023-01-19T08:00:17;15.79;34.86
76299;DHT22;65236;42.332;23.550;2023-01-19T08:02:44;16.10;34.14
76299;DHT22;65236;42.332;23.550;2023-01-19T08:05:10;16.72;32.80
76299;DHT22;65236;42.332;23.550;2023-01-19T08:07:35;16.33;33.38
76299;DHT22;65236;42.332;23.550;2023-01-19T08:10:01;16.38;33.95
76299;DHT22;65236;42.332;23.550;2023-01-19T08:12:26;16.86;33.59
76299;DHT22;65236;42.332;23.550;2023-01-19T08:14:51;17.62;32.31
76299;DHT22;65236;42.332;23.550;2023-01-19T08:17:17;17.69;31.64
76299;DHT22;65236;42.332;23.550;2023-01-19T08:19:43;16.60;33.26
76299;DHT22;65236;42.332;23.550;2023-01-19T08:22:09;17.17;32.80
76299;DHT22;65236;42.332;23.550;2023-01-19T08:24:34;17.37;32.71
76299;DHT22;65236;42.332;23.550;2023-01-19T08:27:01;17.41;32.68
76299;DHT22;65236;42.332;23.550;2023-01-19T08:29:27;18.36;31.37
76299;DHT22;65236;42.332;23.550;2023-01-19T08:31:56;19.20;29.61
76299;DHT22;65236;42.332;23.550;2023-01-19T08:34:24;18.96;29.55
76299;DHT22;65236;42.332;23.550;2023-01-19T08:36:49;19.35;29.84
76299;DHT22;65236;42.332;23.550;2023-01-19T08:39:14;18.24;30.71
76299;DHT22;65236;42.332;23.550;2023-01-19T08:41:42;18.61;30.93
76299;DHT22;65236;42.332;23.550;2023-01-19T08:44:07;18.11;31.90
76299;DHT22;65236;42.332;23.550;2023-01-19T08:46:33;18.61;31.22
76299;DHT22;65236;42.332;23.550;2023-01-19T08:48:58;19.64;29.91
76299;DHT22;65236;42.332;23.550;2023-01-19T08:51:23;20.44;29.09
76299;DHT22;65236;42.332;23.550;2023-01-19T08:53:49;20.81;28.48
76299;DHT22;65236;42.332;23.550;2023-01-19T08:56:14;19.77;30.11
76299;DHT22;65236;42.332;23.550;2023-01-19T08:58:41;19.81;29.26
76299;DHT22;65236;42.332;23.550;2023-01-19T09:01:08;19.99;29.70
76299;DHT22;65236;42.332;23.550;2023-01-19T09:03:34;18.36;32.44
76299;DHT22;65236;42.332;23.550;2023-01-19T09:06:00;18.17;33.46
76299;DHT22;65236;42.332;23.550;2023-01-19T09:08:26;19.74;30.91
76299;DHT22;65236;42.332;23.550;2023-01-19T09:10:52;19.20;31.34
76299;DHT22;65236;42.332;23.550;2023-01-19T09:13:18;19.49;31.00
76299;DHT22;65236;42.332;23.550;2023-01-19T09:15:44;18.47;32.92
76299;DHT22;65236;42.332;23.550;2023-01-19T09:18:12;19.31;32.22
76299;DHT22;65236;42.332;23.550;2023-01-19T09:20:39;19.10;31.85
76299;DHT22;65236;42.332;23.550;2023-01-19T09:23:07;19.55;33.02
76299;DHT22;65236;42.332;23.550;2023-01-19T09:25:35;20.27;32.29
76299;DHT22;65236;42.332;23.550;2023-01-19T09:28:01;19.31;33.07
76299;DHT22;65236;42.332;23.550;2023-01-19T09:30:27;18.95;33.12
76299;DHT22;65236;42.332;23.550;2023-01-19T09:32:52;19.47;33.33
76299;DHT22;65236;42.332;23.550;2023-01-19T09:35:18;19.05;33.10
76299;DHT22;65236;42.332;23.550;2023-01-19T09:37:48;17.11;36.41
76299;DHT22;65236;42.332;23.550;2023-01-19T09:40:20;15.82;38.51
76299;DHT22;65236;42.332;23.550;2023-01-19T09:42:54;15.43;41.00
76299;DHT22;65236;42.332;23.550;2023-01-19T09:45:30;17.14;37.37
76299;DHT22;65236;42.332;23.550;2023-01-19T09:48:00;16.25;38.40
76299;DHT22;65236;42.332;23.550;2023-01-19T09:50:30;17.27;37.51
76299;DHT22;65236;42.332;23.550;2023-01-19T09:53:06;15.19;42.36
76299;DHT22;65236;42.332;23.550;2023-01-19T09:55:39;15.38;42.36
76299;DHT22;65236;42.332;23.550;2023-01-19T09:58:14;15.83;43.09
76299;DHT22;65236;42.332;23.550;2023-01-19T10:00:46;16.00;41.84
76299;DHT22;65236;42.332;23.550;2023-01-19T10:03:16;14.91;43.56
76299;DHT22;65236;42.332;23.550;2023-01-19T10:05:51;13.57;46.38
76299;DHT22;65236;42.332;23.550;2023-01-19T10:08:34;13.89;46.25
76299;DHT22;65236;42.332;23.550;2023-01-19T10:11:00;14.11;48.22
76299;DHT22;65236;42.332;23.550;2023-01-19T10:16:28;13.16;50.40
76299;DHT22;65236;42.332;23.550;2023-01-19T10:19:01;13.50;49.04
76299;DHT22;65236;42.332;23.550;2023-01-19T10:21:42;13.98;48.50
76299;DHT22;65236;42.332;23.550;2023-01-19T10:26:44;13.56;49.59
76299;DHT22;65236;42.332;23.550;2023-01-19T10:29:27;14.73;46.93
76299;DHT22;65236;42.332;23.550;2023-01-19T10:32:05;16.01;45.99
76299;DHT22;65236;42.332;23.550;2023-01-19T10:34:32;16.31;44.57
76299;DHT22;65236;42.332;23.550;2023-01-19T10:37:35;14.80;47.38
76299;DHT22;65236;42.332;23.550;2023-01-19T10:42:28;15.52;45.37
76299;DHT22;65236;42.332;23.550;2023-01-19T10:44:54;16.13;45.13
76299;DHT22;65236;42.332;23.550;2023-01-19T10:47:28;14.84;46.35
76299;DHT22;65236;42.332;23.550;2023-01-19T10:49:54;14.36;48.29
76299;DHT22;65236;42.332;23.550;2023-01-19T10:52:30;13.57;49.94
76299;DHT22;65236;42.332;23.550;2023-01-19T10:54:57;13.29;50.83
76299;DHT22;65236;42.332;23.550;2023-01-19T10:57:34;13.75;49.92
76299;DHT22;65236;42.332;23.550;2023-01-19T11:00:03;13.13;50.44
76299;DHT22;65236;42.332;23.550;2023-01-19T11:02:30;12.78;51.64
76299;DHT22;65236;42.332;23.550;2023-01-19T11:04:57;12.71;53.41
76299;DHT22;65236;42.332;23.550;2023-01-19T11:07:33;13.18;52.62
76299;DHT22;65236;42.332;23.550;2023-01-19T11:13:00;13.06;51.49
76299;DHT22;65236;42.332;23.550;2023-01-19T11:18:01;13.02;51.25
76299;DHT22;65236;42.332;23.550;2023-01-19T11:20:32;13.51;50.88
76299;DHT22;65236;42.332;23.550;2023-01-19T11:25:38;14.29;49.17
76299;DHT22;65236;42.332;23.550;2023-01-19T11:28:04;13.87;49.52
76299;DHT22;65236;42.332;23.550;2023-01-19T11:30:29;14.50;48.94
76299;DHT22;65236;42.332;23.550;2023-01-19T11:32:55;14.79;47.25
76299;DHT22;65236;42.332;23.550;2023-01-19T11:35:47;15.36;45.94
76299;DHT22;65236;42.332;23.550;2023-01-19T11:38:19;15.10;46.02
76299;DHT22;65236;42.332;23.550;2023-01-19T11:40:53;15.25;45.20
76299;DHT22;65236;42.332;23.550;2023-01-19T11:43:22;14.19;48.09
76299;DHT22;65236;42.332;23.550;2023-01-19T11:45:48;14.32;53.21
76299;DHT22;65236;42.332;23.550;2023-01-19T11:48:23;14.32;51.48
76299;DHT22;65236;42.332;23.550;2023-01-19T11:50:49;14.83;48.57
76299;DHT22;65236;42.332;23.550;2023-01-19T11:53:22;14.35;47.35
76299;DHT22;65236;42.332;23.550;2023-01-19T11:55:57;14.81;46.91
76299;DHT22;65236;42.332;23.550;2023-01-19T11:58:25;14.73;46.89
76299;DHT22;65236;42.332;23.550;2023-01-19T12:03:45;17.13;41.03
76299;DHT22;65236;42.332;23.550;2023-01-19T12:06:20;17.78;39.52
76299;DHT22;65236;42.332;23.550;2023-01-19T12:11:45;18.04;38.18
76299;DHT22;65236;42.332;23.550;2023-01-19T12:14:28;19.31;35.85
76299;DHT22;65236;42.332;23.550;2023-01-19T12:16:59;20.70;32.93
76299;DHT22;65236;42.332;23.550;2023-01-19T12:19:45;17.93;36.39
76299;DHT22;65236;42.332;23.550;2023-01-19T12:22:16;16.96;38.55
76299;DHT22;65236;42.332;23.550;2023-01-19T12:24:51;15.74;39.41
76299;DHT22;65236;42.332;23.550;2023-01-19T12:27:33;17.69;36.25
76299;DHT22;65236;42.332;23.550;2023-01-19T12:30:01;17.58;35.89
76299;DHT22;65236;42.332;23.550;2023-01-19T12:32:35;16.97;37.88
76299;DHT22;65236;42.332;23.550;2023-01-19T12:35:02;17.13;37.48
76299;DHT22;65236;42.332;23.550;2023-01-19T12:37:41;17.78;36.35
76299;DHT22;65236;42.332;23.550;2023-01-19T12:40:24;17.00;38.29
76299;DHT22;65236;42.332;23.550;2023-01-19T12:43:02;18.45;37.06
76299;DHT22;65236;42.332;23.550;2023-01-19T12:45:35;21.09;33.24
76299;DHT22;65236;42.332;23.550;2023-01-19T12:48:03;20.44;32.31
76299;DHT22;65236;42.332;23.550;2023-01-19T12:50:34;22.11;29.28
76299;DHT22;65236;42.332;23.550;2023-01-19T12:53:02;24.58;27.39
76299;DHT22;65236;42.332;23.550;2023-01-19T12:55:36;24.75;26.77
76299;DHT22;65236;42.332;23.550;2023-01-19T12:58:07;24.23;26.96
76299;DHT22;65236;42.332;23.550;2023-01-19T13:00:38;23.07;28.16
76299;DHT22;65236;42.332;23.550;2023-01-19T13:05:52;19.82;33.81
76299;DHT22;65236;42.332;23.550;2023-01-19T13:11:19;18.30;36.41
76299;DHT22;65236;42.332;23.550;2023-01-19T13:21:46;14.28;45.44
76299;DHT22;65236;42.332;23.550;2023-01-19T13:26:51;12.43;52.36
76299;DHT22;65236;42.332;23.550;2023-01-19T13:31:46;12.10;52.08
76299;DHT22;65236;42.332;23.550;2023-01-19T13:34:25;12.10;54.05
76299;DHT22;65236;42.332;23.550;2023-01-19T13:36:53;11.47;56.55
76299;DHT22;65236;42.332;23.550;2023-01-19T13:39:35;11.09;56.47
76299;DHT22;65236;42.332;23.550;2023-01-19T13:44:53;10.88;62.27
76299;DHT22;65236;42.332;23.550;2023-01-19T13:47:25;10.65;63.25
76299;DHT22;65236;42.332;23.550;2023-01-19T13:49:56;10.61;63.74
76299;DHT22;65236;42.332;23.550;2023-01-19T13:52:25;10.51;62.62
76299;DHT22;65236;42.332;23.550;2023-01-19T13:54:54;10.44;62.75
76299;DHT22;65236;42.332;23.550;2023-01-19T13:57:28;10.49;60.52
76299;DHT22;65236;42.332;23.550;2023-01-19T14:02:31;10.62;58.41
76299;DHT22;65236;42.332;23.550;2023-01-19T14:04:56;10.69;58.10
76299;DHT22;65236;42.332;23.550;2023-01-19T14:07:22;10.82;57.65
76299;DHT22;65236;42.332;23.550;2023-01-19T14:10:01;10.85;59.00
76299;DHT22;65236;42.332;23.550;2023-01-19T14:12:27;11.05;59.04
76299;DHT22;65236;42.332;23.550;2023-01-19T14:14:52;10.82;60.46
76299;DHT22;65236;42.332;23.550;2023-01-19T14:17:25;10.95;59.90
76299;DHT22;65236;42.332;23.550;2023-01-19T14:19:53;10.88;62.39
76299;DHT22;65236;42.332;23.550;2023-01-19T14:22:18;10.79;62.87
76299;DHT22;65236;42.332;23.550;2023-01-19T14:24:44;10.73;63.56
76299;DHT22;65236;42.332;23.550;2023-01-19T14:27:16;10.68;60.53
76299;DHT22;65236;42.332;23.550;2023-01-19T14:29:46;10.71;58.80
76299;DHT22;65236;42.332;23.550;2023-01-19T14:32:20;10.68;58.08
76299;DHT22;65236;42.332;23.550;2023-01-19T14:37:33;10.83;58.03
76299;DHT22;65236;42.332;23.550;2023-01-19T14:42:53;10.93;57.41
76299;DHT22;65236;42.332;23.550;2023-01-19T14:45:24;10.92;56.43
76299;DHT22;65236;42.332;23.550;2023-01-19T14:48:05;10.73;57.78
76299;DHT22;65236;42.332;23.550;2023-01-19T14:50:39;10.71;58.54
76299;DHT22;65236;42.332;23.550;2023-01-19T14:53:11;10.61;58.36
76299;DHT22;65236;42.332;23.550;2023-01-19T14:55:47;10.62;58.35
76299;DHT22;65236;42.332;23.550;2023-01-19T14:58:15;10.73;57.51
76299;DHT22;65236;42.332;23.550;2023-01-19T15:00:42;10.75;57.85
76299;DHT22;65236;42.332;23.550;2023-01-19T15:03:08;10.71;58.49
76299;DHT22;65236;42.332;23.550;2023-01-19T15:05:38;10.68;58.34
76299;DHT22;65236;42.332;23.550;2023-01-19T15:08:05;10.72;57.07
76299;DHT22;65236;42.332;23.550;2023-01-19T15:10:30;10.80;56.95
76299;DHT22;65236;42.332;23.550;2023-01-19T15:12:56;10.73;57.23
76299;DHT22;65236;42.332;23.550;2023-01-19T15:15:29;10.64;57.37
76299;DHT22;65236;42.332;23.550;2023-01-19T15:17:56;10.59;57.73
76299;DHT22;65236;42.332;23.550;2023-01-19T15:20:22;10.54;57.08
76299;DHT22;65236;42.332;23.550;2023-01-19T15:22:48;10.47;57.52
76299;DHT22;65236;42.332;23.550;2023-01-19T15:25:15;10.36;58.18
76299;DHT22;65236;42.332;23.550;2023-01-19T15:27:43;10.25;58.28
76299;DHT22;65236;42.332;23.550;2023-01-19T15:30:17;10.24;58.33
76299;DHT22;65236;42.332;23.550;2023-01-19T15:32:44;10.20;57.93
76299;DHT22;65236;42.332;23.550;2023-01-19T15:35:17;10.33;58.54
76299;DHT22;65236;42.332;23.550;2023-01-19T15:37:44;10.33;59.60
76299;DHT22;65236;42.332;23.550;2023-01-19T15:40:10;10.22;60.84
76299;DHT22;65236;42.332;23.550;2023-01-19T15:42:36;10.07;61.81
76299;DHT22;65236;42.332;23.550;2023-01-19T15:45:01;9.85;63.31
76299;DHT22;65236;42.332;23.550;2023-01-19T15:47:27;9.69;64.09
76299;DHT22;65236;42.332;23.550;2023-01-19T15:49:52;9.63;64.14
76299;DHT22;65236;42.332;23.550;2023-01-19T15:52:18;9.55;65.17
76299;DHT22;65236;42.332;23.550;2023-01-19T15:54:43;9.44;65.21
76299;DHT22;65236;42.332;23.550;2023-01-19T15:57:09;9.49;64.57
76299;DHT22;65236;42.332;23.550;2023-01-19T15:59:35;9.51;64.50
76299;DHT22;65236;42.332;23.550;2023-01-19T16:02:00;9.51;64.69
76299;DHT22;65236;42.332;23.550;2023-01-19T16:04:26;9.49;65.06
76299;DHT22;65236;42.332;23.550;2023-01-19T16:06:51;9.78;61.69
76299;DHT22;65236;42.332;23.550;2023-01-19T16:09:17;9.83;62.27
76299;DHT22;65236;42.332;23.550;2023-01-19T16:11:44;9.85;62.06
76299;DHT22;65236;42.332;23.550;2023-01-19T16:14:10;9.87;61.30
76299;DHT22;65236;42.332;23.550;2023-01-19T16:16:36;9.90;60.99
76299;DHT22;65236;42.332;23.550;2023-01-19T16:19:01;9.83;62.12
76299;DHT22;65236;42.332;23.550;2023-01-19T16:21:27;9.82;61.60
76299;DHT22;65236;42.332;23.550;2023-01-19T16:23:52;9.81;61.77
76299;DHT22;65236;42.332;23.550;2023-01-19T16:28:56;9.85;60.51
76299;DHT22;65236;42.332;23.550;2023-01-19T16:31:22;9.94;59.58
76299;DHT22;65236;42.332;23.550;2023-01-19T16:33:47;9.97;59.77